sensor_id;sensor_type;location;lat;lon;timestamp;pressure;altitude;pressure_sealevel;temperature;humidity
72721;BME280;60835;50.974;10.322;2022-11-15T00:00:47;97266.53;;;11.08;100.00
72721;BME280;60835;50.974;10.322;2022-11-15T00:03:18;97260.31;;;11.15;100.00
72721;BME280;60835;50.974;10.322;2022-11-15T00:05:46;97262.91;;;11.09;100.00
72721;BME280;60835;50.974;10.322;2022-11-15T00:08:13;97239.78;;;10.81;100.00
72721;BME280;60835;50.974;10.322;2022-11-15T00:10:40;97235.97;;;10.69;100.00
72721;BME280;60835;50.974;10.322;2022-11-15T00:13:07;97224.47;;;10.62;100.00
72721;BME280;60835;50.974;10.322;2022-11-15T00:15:35;97194.28;;;10.71;100.00
72721;BME280;60835;50.974;10.322;2022-11-15T00:18:03;97212.78;;;10.71;100.00
72721;BME280;60835;50.974;10.322;2022-11-15T00:20:30;97202.75;;;10.52;100.00
72721;BME280;60835;50.974;10.322;2022-11-15T00:22:57;97191.03;;;10.40;100.00
72721;BME280;60835;50.974;10.322;2022-11-15T00:25:25;97179.16;;;10.36;100.00
72721;BME280;60835;50.974;10.322;2022-11-15T00:27:55;97155.47;;;10.43;100.00
72721;BME280;60835;50.974;10.322;2022-11-15T00:30:22;97172.69;;;10.38;100.00
72721;BME280;60835;50.974;10.322;2022-11-15T00:32:49;97160.19;;;10.97;100.00
72721;BME280;60835;50.974;10.322;2022-11-15T00:35:16;97199.25;;;10.95;100.00
72721;BME280;60835;50.974;10.322;2022-11-15T00:37:43;97200.56;;;10.70;100.00
72721;BME280;60835;50.974;10.322;2022-11-15T00:40:10;97191.47;;;10.58;100.00
72721;BME280;60835;50.974;10.322;2022-11-15T00:42:37;97176.22;;;10.75;100.00
72721;BME280;60835;50.974;10.322;2022-11-15T00:45:03;97172.47;;;10.69;100.00
72721;BME280;60835;50.974;10.322;2022-11-15T00:47:30;97182.84;;;10.85;100.00
72721;BME280;60835;50.974;10.322;2022-11-15T00:49:58;97186.13;;;10.87;100.00
72721;BME280;60835;50.974;10.322;2022-11-15T00:52:25;97170.03;;;11.04;100.00
72721;BME280;60835;50.974;10.322;2022-11-15T00:54:52;97169.22;;;10.88;100.00
72721;BME280;60835;50.974;10.322;2022-11-15T00:57:18;97220.34;;;11.46;100.00
72721;BME280;60835;50.974;10.322;2022-11-15T00:59:45;97212.66;;;11.30;100.00
72721;BME280;60835;50.974;10.322;2022-11-15T01:02:11;97235.97;;;11.41;100.00
72721;BME280;60835;50.974;10.322;2022-11-15T01:04:38;97240.88;;;11.44;100.00
72721;BME280;60835;50.974;10.322;2022-11-15T01:07:04;97254.41;;;11.49;100.00
72721;BME280;60835;50.974;10.322;2022-11-15T01:09:31;97269.13;;;11.58;100.00
72721;BME280;60835;50.974;10.322;2022-11-15T01:11:57;97276.97;;;11.66;100.00
72721;BME280;60835;50.974;10.322;2022-11-15T01:14:24;97279.00;;;11.64;100.00
72721;BME280;60835;50.974;10.322;2022-11-15T01:16:51;97293.84;;;11.65;100.00
72721;BME280;60835;50.974;10.322;2022-11-15T01:19:17;97300.94;;;11.58;100.00
72721;BME280;60835;50.974;10.322;2022-11-15T01:21:44;97270.28;;;11.49;100.00
72721;BME280;60835;50.974;10.322;2022-11-15T01:24:12;97287.94;;;11.63;100.00
72721;BME280;60835;50.974;10.322;2022-11-15T01:26:39;97306.47;;;11.63;100.00
72721;BME280;60835;50.974;10.322;2022-11-15T01:29:05;97294.88;;;11.64;100.00
72721;BME280;60835;50.974;10.322;2022-11-15T01:31:32;97303.31;;;11.53;100.00
72721;BME280;60835;50.974;10.322;2022-11-15T01:33:58;97298.59;;;11.48;100.00
72721;BME280;60835;50.974;10.322;2022-11-15T01:36:25;97309.00;;;11.50;100.00
72721;BME280;60835;50.974;10.322;2022-11-15T01:38:56;97301.63;;;11.45;100.00
72721;BME280;60835;50.974;10.322;2022-11-15T01:41:28;97297.88;;;11.40;100.00
72721;BME280;60835;50.974;10.322;2022-11-15T01:46:45;97297.88;;;11.40;100.00
72721;BME280;60835;50.974;10.322;2022-11-15T01:49:18;97295.84;;;11.42;100.00
72721;BME280;60835;50.974;10.322;2022-11-15T01:51:46;97305.56;;;11.35;100.00
72721;BME280;60835;50.974;10.322;2022-11-15T01:54:16;97293.69;;;11.31;100.00
72721;BME280;60835;50.974;10.322;2022-11-15T01:56:53;97284.06;;;11.44;100.00
72721;BME280;60835;50.974;10.322;2022-11-15T01:59:22;97272.38;;;11.18;100.00
72721;BME280;60835;50.974;10.322;2022-11-15T02:01:49;97277.66;;;11.18;100.00
72721;BME280;60835;50.974;10.322;2022-11-15T02:06:46;97277.44;;;11.34;100.00
72721;BME280;60835;50.974;10.322;2022-11-15T02:09:13;97277.66;;;11.18;100.00
72721;BME280;60835;50.974;10.322;2022-11-15T02:11:40;97266.97;;;11.26;100.00
72721;BME280;60835;50.974;10.322;2022-11-15T02:14:08;97280.50;;;11.16;100.00
72721;BME280;60835;50.974;10.322;2022-11-15T02:16:47;97275.28;;;11.23;100.00
72721;BME280;60835;50.974;10.322;2022-11-15T02:22:21;97262.91;;;11.09;100.00
72721;BME280;60835;50.974;10.322;2022-11-15T02:30:48;97243.41;;;10.80;100.00
72721;BME280;60835;50.974;10.322;2022-11-15T02:33:39;97233.75;;;10.87;100.00
72721;BME280;60835;50.974;10.322;2022-11-15T02:36:29;97222.53;;;10.71;100.00
72721;BME280;60835;50.974;10.322;2022-11-15T02:39:07;97201.19;;;10.72;100.00
72721;BME280;60835;50.974;10.322;2022-11-15T02:41:41;97194.44;;;10.70;100.00
72721;BME280;60835;50.974;10.322;2022-11-15T02:44:19;97191.25;;;10.74;100.00
72721;BME280;60835;50.974;10.322;2022-11-15T02:46:54;97183.13;;;10.76;100.00
72721;BME280;60835;50.974;10.322;2022-11-15T02:49:45;97190.25;;;10.75;100.00
72721;BME280;60835;50.974;10.322;2022-11-15T02:52:20;97185.06;;;10.67;100.00
72721;BME280;60835;50.974;10.322;2022-11-15T02:54:58;97189.97;;;10.70;100.00
72721;BME280;60835;50.974;10.322;2022-11-15T02:57:39;97191.47;;;10.58;100.00
72721;BME280;60835;50.974;10.322;2022-11-15T03:00:17;97187.44;;;10.62;100.00
72721;BME280;60835;50.974;10.322;2022-11-15T03:05:52;97187.44;;;10.62;100.00
72721;BME280;60835;50.974;10.322;2022-11-15T03:08:37;97188.41;;;10.76;100.00
72721;BME280;60835;50.974;10.322;2022-11-15T03:11:11;97195.63;;;10.67;100.00
72721;BME280;60835;50.974;10.322;2022-11-15T03:14:06;97196.75;;;10.58;100.00
72721;BME280;60835;50.974;10.322;2022-11-15T03:16:44;97192.25;;;10.73;100.00
72721;BME280;60835;50.974;10.322;2022-11-15T03:19:36;97193.28;;;10.58;100.00
72721;BME280;60835;50.974;10.322;2022-11-15T03:22:07;97177.31;;;10.66;100.00
72721;BME280;60835;50.974;10.322;2022-11-15T03:24:37;97181.97;;;10.49;100.00
72721;BME280;60835;50.974;10.322;2022-11-15T03:27:06;97185.25;;;10.51;100.00
72721;BME280;60835;50.974;10.322;2022-11-15T03:29:39;97155.84;;;10.39;100.00
72721;BME280;60835;50.974;10.322;2022-11-15T03:32:19;97175.78;;;10.42;100.00
72721;BME280;60835;50.974;10.322;2022-11-15T03:34:57;97175.97;;;10.55;100.00
72721;BME280;60835;50.974;10.322;2022-11-15T03:37:32;97178.88;;;10.60;100.00
72721;BME280;60835;50.974;10.322;2022-11-15T03:40:02;97184.53;;;10.57;100.00
72721;BME280;60835;50.974;10.322;2022-11-15T03:42:39;97183.25;;;10.53;100.00
72721;BME280;60835;50.974;10.322;2022-11-15T03:45:15;97185.19;;;10.45;100.00
72721;BME280;60835;50.974;10.322;2022-11-15T03:47:52;97189.28;;;10.47;100.00
72721;BME280;60835;50.974;10.322;2022-11-15T03:50:21;97188.75;;;10.37;100.00
72721;BME280;60835;50.974;10.322;2022-11-15T03:52:49;97194.03;;;10.37;100.00
72721;BME280;60835;50.974;10.322;2022-11-15T03:55:20;97200.84;;;10.46;100.00
72721;BME280;60835;50.974;10.322;2022-11-15T03:57:51;97206.06;;;10.39;100.00
72721;BME280;60835;50.974;10.322;2022-11-15T04:00:19;97187.78;;;10.01;100.00
72721;BME280;60835;50.974;10.322;2022-11-15T04:02:46;97161.06;;;9.96;100.00
72721;BME280;60835;50.974;10.322;2022-11-15T04:05:13;97151.03;;;10.14;100.00
72721;BME280;60835;50.974;10.322;2022-11-15T04:07:39;97146.59;;;9.92;100.00
72721;BME280;60835;50.974;10.322;2022-11-15T04:10:08;97132.59;;;10.06;100.00
72721;BME280;60835;50.974;10.322;2022-11-15T04:12:37;97083.56;;;9.89;100.00
72721;BME280;60835;50.974;10.322;2022-11-15T04:17:47;97134.03;;;9.94;100.00
72721;BME280;60835;50.974;10.322;2022-11-15T04:23:07;97122.72;;;9.70;100.00
72721;BME280;60835;50.974;10.322;2022-11-15T04:25:56;97114.88;;;9.62;100.00
72721;BME280;60835;50.974;10.322;2022-11-15T04:28:24;97104.66;;;9.45;100.00
72721;BME280;60835;50.974;10.322;2022-11-15T04:30:51;97103.63;;;9.31;100.00
72721;BME280;60835;50.974;10.322;2022-11-15T04:33:18;97183.69;;;9.24;100.00
72721;BME280;60835;50.974;10.322;2022-11-15T04:35:44;97209.41;;;8.99;100.00
72721;BME280;60835;50.974;10.322;2022-11-15T04:38:31;97188.53;;;8.89;100.00
72721;BME280;60835;50.974;10.322;2022-11-15T04:40:57;97221.69;;;8.84;100.00
72721;BME280;60835;50.974;10.322;2022-11-15T04:43:24;97227.47;;;8.79;100.00
72721;BME280;60835;50.974;10.322;2022-11-15T04:45:50;97228.63;;;8.77;100.00
72721;BME280;60835;50.974;10.322;2022-11-15T04:48:17;97201.75;;;8.42;100.00
72721;BME280;60835;50.974;10.322;2022-11-15T04:50:43;97218.31;;;8.67;100.00
72721;BME280;60835;50.974;10.322;2022-11-15T04:53:09;97216.19;;;8.63;100.00
72721;BME280;60835;50.974;10.322;2022-11-15T04:55:36;97210.56;;;8.66;100.00
72721;BME280;60835;50.974;10.322;2022-11-15T04:58:02;97226.25;;;8.59;100.00
72721;BME280;60835;50.974;10.322;2022-11-15T05:00:29;97203.78;;;8.32;100.00
72721;BME280;60835;50.974;10.322;2022-11-15T05:02:56;97215.91;;;8.49;100.00
72721;BME280;60835;50.974;10.322;2022-11-15T05:05:42;97211.66;;;8.40;100.00
72721;BME280;60835;50.974;10.322;2022-11-15T05:08:08;97218.09;;;8.22;100.00
72721;BME280;60835;50.974;10.322;2022-11-15T05:10:35;97208.06;;;8.25;100.00
72721;BME280;60835;50.974;10.322;2022-11-15T05:13:01;97243.47;;;8.15;100.00
72721;BME280;60835;50.974;10.322;2022-11-15T05:15:28;97237.06;;;8.17;100.00
72721;BME280;60835;50.974;10.322;2022-11-15T05:17:59;97205.56;;;8.79;100.00
72721;BME280;60835;50.974;10.322;2022-11-15T05:20:26;97208.25;;;8.71;100.00
72721;BME280;60835;50.974;10.322;2022-11-15T05:22:53;97181.66;;;8.80;100.00
72721;BME280;60835;50.974;10.322;2022-11-15T05:25:22;97209.09;;;8.94;100.00
72721;BME280;60835;50.974;10.322;2022-11-15T05:27:49;97207.84;;;8.82;100.00
72721;BME280;60835;50.974;10.322;2022-11-15T05:30:15;97184.47;;;8.79;100.00
72721;BME280;60835;50.974;10.322;2022-11-15T05:32:43;97206.47;;;8.94;100.00
72721;BME280;60835;50.974;10.322;2022-11-15T05:35:16;97201.88;;;8.88;100.00
72721;BME280;60835;50.974;10.322;2022-11-15T05:37:45;97220.56;;;8.78;100.00
72721;BME280;60835;50.974;10.322;2022-11-15T05:40:12;97222.16;;;8.48;100.00
72721;BME280;60835;50.974;10.322;2022-11-15T05:42:38;97226.41;;;8.66;100.00
72721;BME280;60835;50.974;10.322;2022-11-15T05:45:06;97195.28;;;8.53;100.00
72721;BME280;60835;50.974;10.322;2022-11-15T05:47:35;97211.38;;;8.66;100.00
72721;BME280;60835;50.974;10.322;2022-11-15T05:50:03;97197.97;;;9.06;100.00
72721;BME280;60835;50.974;10.322;2022-11-15T05:52:31;97206.19;;;9.11;100.00
72721;BME280;60835;50.974;10.322;2022-11-15T05:55:01;97194.84;;;9.48;100.00
72721;BME280;60835;50.974;10.322;2022-11-15T05:57:29;97189.66;;;9.40;100.00
72721;BME280;60835;50.974;10.322;2022-11-15T05:59:55;97185.78;;;9.28;100.00
72721;BME280;60835;50.974;10.322;2022-11-15T06:02:22;97176.03;;;9.51;100.00
72721;BME280;60835;50.974;10.322;2022-11-15T06:04:48;97158.41;;;9.66;100.00
72721;BME280;60835;50.974;10.322;2022-11-15T06:07:15;97138.66;;;9.77;100.00
72721;BME280;60835;50.974;10.322;2022-11-15T06:09:41;97131.56;;;9.77;100.00
72721;BME280;60835;50.974;10.322;2022-11-15T06:12:08;97138.38;;;9.57;100.00
72721;BME280;60835;50.974;10.322;2022-11-15T06:14:34;97187.81;;;8.95;100.00
72721;BME280;60835;50.974;10.322;2022-11-15T06:17:00;97223.00;;;8.80;100.00
72721;BME280;60835;50.974;10.322;2022-11-15T06:19:33;97226.56;;;8.95;100.00
72721;BME280;60835;50.974;10.322;2022-11-15T06:22:00;97254.09;;;8.92;100.00
72721;BME280;60835;50.974;10.322;2022-11-15T06:24:26;97244.72;;;8.90;100.00
72721;BME280;60835;50.974;10.322;2022-11-15T06:26:53;97231.59;;;9.12;100.00
72721;BME280;60835;50.974;10.322;2022-11-15T06:29:20;97230.81;;;9.27;100.00
72721;BME280;60835;50.974;10.322;2022-11-15T06:31:46;97223.06;;;9.48;100.00
72721;BME280;60835;50.974;10.322;2022-11-15T06:34:13;97214.50;;;9.68;100.00
72721;BME280;60835;50.974;10.322;2022-11-15T06:36:39;97199.09;;;9.72;100.00
72721;BME280;60835;50.974;10.322;2022-11-15T06:39:06;97181.38;;;9.80;100.00
72721;BME280;60835;50.974;10.322;2022-11-15T06:41:35;97156.81;;;9.95;100.00
72721;BME280;60835;50.974;10.322;2022-11-15T06:44:02;97080.72;;;10.34;100.00
72721;BME280;60835;50.974;10.322;2022-11-15T06:46:29;97080.47;;;10.29;100.00
72721;BME280;60835;50.974;10.322;2022-11-15T06:48:55;97113.69;;;10.38;100.00
72721;BME280;60835;50.974;10.322;2022-11-15T06:51:22;97126.72;;;10.54;100.00
72721;BME280;60835;50.974;10.322;2022-11-15T06:53:48;97167.72;;;10.65;100.00
72721;BME280;60835;50.974;10.322;2022-11-15T06:56:15;97184.16;;;10.60;100.00
72721;BME280;60835;50.974;10.322;2022-11-15T06:58:41;97182.59;;;10.51;100.00
72721;BME280;60835;50.974;10.322;2022-11-15T07:01:10;97194.66;;;10.54;100.00
72721;BME280;60835;50.974;10.322;2022-11-15T07:03:38;97191.38;;;10.52;100.00
72721;BME280;60835;50.974;10.322;2022-11-15T07:06:05;97208.06;;;10.52;100.00
72721;BME280;60835;50.974;10.322;2022-11-15T07:08:33;97204.41;;;10.53;100.00
72721;BME280;60835;50.974;10.322;2022-11-15T07:11:02;97203.66;;;10.59;100.00
72721;BME280;60835;50.974;10.322;2022-11-15T07:13:31;97190.28;;;10.17;100.00
72721;BME280;60835;50.974;10.322;2022-11-15T07:16:06;97168.31;;;10.31;100.00
72721;BME280;60835;50.974;10.322;2022-11-15T07:18:35;97153.13;;;10.18;100.00
72721;BME280;60835;50.974;10.322;2022-11-15T07:21:03;97138.00;;;10.27;100.00
72721;BME280;60835;50.974;10.322;2022-11-15T07:23:30;97147.72;;;10.41;100.00
72721;BME280;60835;50.974;10.322;2022-11-15T07:25:58;97144.78;;;10.36;100.00
72721;BME280;60835;50.974;10.322;2022-11-15T07:28:28;97143.69;;;10.45;100.00
72721;BME280;60835;50.974;10.322;2022-11-15T07:30:54;97126.66;;;10.48;100.00
72721;BME280;60835;50.974;10.322;2022-11-15T07:33:21;97123.44;;;10.67;100.00
72721;BME280;60835;50.974;10.322;2022-11-15T07:35:47;97138.63;;;10.79;100.00
72721;BME280;60835;50.974;10.322;2022-11-15T07:38:15;97129.72;;;10.66;100.00
72721;BME280;60835;50.974;10.322;2022-11-15T07:40:41;97136.84;;;10.86;100.00
72721;BME280;60835;50.974;10.322;2022-11-15T07:43:08;97161.38;;;10.95;100.00
72721;BME280;60835;50.974;10.322;2022-11-15T07:45:43;97176.69;;;10.99;100.00
72721;BME280;60835;50.974;10.322;2022-11-15T07:48:10;97162.72;;;11.06;100.00
72721;BME280;60835;50.974;10.322;2022-11-15T07:50:37;97169.38;;;11.23;100.00
72721;BME280;60835;50.974;10.322;2022-11-15T07:53:08;97238.63;;;11.62;100.00
72721;BME280;60835;50.974;10.322;2022-11-15T07:55:35;97284.66;;;12.25;100.00
72721;BME280;60835;50.974;10.322;2022-11-15T08:00:29;97356.56;;;11.73;100.00
72721;BME280;60835;50.974;10.322;2022-11-15T08:03:09;97363.06;;;11.70;100.00
72721;BME280;60835;50.974;10.322;2022-11-15T08:05:37;97382.59;;;11.69;100.00
72721;BME280;60835;50.974;10.322;2022-11-15T08:08:04;97382.13;;;11.80;100.00
72721;BME280;60835;50.974;10.322;2022-11-15T08:10:31;97407.22;;;11.84;100.00
72721;BME280;60835;50.974;10.322;2022-11-15T08:13:08;97424.97;;;11.69;100.00
72721;BME280;60835;50.974;10.322;2022-11-15T08:15:36;97426.06;;;11.60;100.00
72721;BME280;60835;50.974;10.322;2022-11-15T08:18:06;97446.50;;;11.66;100.00
72721;BME280;60835;50.974;10.322;2022-11-15T08:20:33;97437.84;;;11.57;100.00
72721;BME280;60835;50.974;10.322;2022-11-15T08:23:02;97430.66;;;11.51;100.00
72721;BME280;60835;50.974;10.322;2022-11-15T08:25:31;97409.44;;;11.66;100.00
72721;BME280;60835;50.974;10.322;2022-11-15T08:28:01;97424.44;;;11.59;100.00
72721;BME280;60835;50.974;10.322;2022-11-15T08:30:28;97427.25;;;11.57;100.00
72721;BME280;60835;50.974;10.322;2022-11-15T08:32:57;97418.47;;;12.07;100.00
72721;BME280;60835;50.974;10.322;2022-11-15T08:35:24;97459.53;;;12.75;100.00
72721;BME280;60835;50.974;10.322;2022-11-15T08:37:54;97525.69;;;13.47;100.00
72721;BME280;60835;50.974;10.322;2022-11-15T08:40:21;97609.28;;;13.51;100.00
72721;BME280;60835;50.974;10.322;2022-11-15T08:42:47;97650.69;;;13.38;100.00
72721;BME280;60835;50.974;10.322;2022-11-15T08:45:14;97653.94;;;13.13;100.00
72721;BME280;60835;50.974;10.322;2022-11-15T08:47:41;97672.81;;;13.24;100.00
72721;BME280;60835;50.974;10.322;2022-11-15T08:50:07;97686.31;;;13.23;100.00
72721;BME280;60835;50.974;10.322;2022-11-15T08:52:34;97704.69;;;13.67;100.00
72721;BME280;60835;50.974;10.322;2022-11-15T08:55:00;97736.81;;;13.29;100.00
72721;BME280;60835;50.974;10.322;2022-11-15T08:57:30;97736.31;;;13.40;100.00
72721;BME280;60835;50.974;10.322;2022-11-15T08:59:57;97795.38;;;13.99;100.00
72721;BME280;60835;50.974;10.322;2022-11-15T09:02:23;97835.34;;;14.83;100.00
72721;BME280;60835;50.974;10.322;2022-11-15T09:04:50;97922.78;;;15.07;100.00
72721;BME280;60835;50.974;10.322;2022-11-15T09:07:17;97930.00;;;14.85;100.00
72721;BME280;60835;50.974;10.322;2022-11-15T09:09:43;97943.59;;;14.27;100.00
72721;BME280;60835;50.974;10.322;2022-11-15T09:12:10;97911.47;;;13.71;100.00
72721;BME280;60835;50.974;10.322;2022-11-15T09:14:36;97870.41;;;13.74;100.00
72721;BME280;60835;50.974;10.322;2022-11-15T09:17:03;97897.94;;;15.00;100.00
72721;BME280;60835;50.974;10.322;2022-11-15T09:19:30;97950.84;;;15.65;100.00
72721;BME280;60835;50.974;10.322;2022-11-15T09:21:56;98023.78;;;15.51;100.00
72721;BME280;60835;50.974;10.322;2022-11-15T09:24:23;98000.47;;;15.59;100.00
72721;BME280;60835;50.974;10.322;2022-11-15T09:26:50;98055.47;;;16.01;100.00
72721;BME280;60835;50.974;10.322;2022-11-15T09:29:18;98055.19;;;15.55;100.00
72721;BME280;60835;50.974;10.322;2022-11-15T09:31:44;98009.38;;;15.79;100.00
72721;BME280;60835;50.974;10.322;2022-11-15T09:34:11;98073.88;;;16.97;100.00
72721;BME280;60835;50.974;10.322;2022-11-15T09:36:38;98138.44;;;17.01;100.00
72721;BME280;60835;50.974;10.322;2022-11-15T09:39:04;98095.16;;;16.58;100.00
72721;BME280;60835;50.974;10.322;2022-11-15T09:49:43;98139.28;;;17.01;100.00
72721;BME280;60835;50.974;10.322;2022-11-15T09:52:10;98167.75;;;18.07;100.00
72721;BME280;60835;50.974;10.322;2022-11-15T09:54:39;98529.59;;;18.78;100.00
72721;BME280;60835;50.974;10.322;2022-11-15T10:00:20;98540.72;;;18.14;100.00
72721;BME280;60835;50.974;10.322;2022-11-15T10:05:47;98550.69;;;19.47;100.00
72721;BME280;60835;50.974;10.322;2022-11-15T10:11:03;98554.22;;;17.93;100.00
72721;BME280;60835;50.974;10.322;2022-11-15T10:13:56;98546.97;;;19.28;100.00
72721;BME280;60835;50.974;10.322;2022-11-15T10:19:32;98556.03;;;17.86;100.00
72721;BME280;60835;50.974;10.322;2022-11-15T10:22:38;98546.97;;;19.61;100.00
72721;BME280;60835;50.974;10.322;2022-11-15T10:27:34;98531.16;;;18.40;100.00
72721;BME280;60835;50.974;10.322;2022-11-15T10:30:01;98524.81;;;18.00;100.00
72721;BME280;60835;50.974;10.322;2022-11-15T10:32:29;98513.53;;;18.71;100.00
72721;BME280;60835;50.974;10.322;2022-11-15T10:34:59;98512.66;;;18.04;100.00
72721;BME280;60835;50.974;10.322;2022-11-15T10:37:30;98513.94;;;18.88;100.00
72721;BME280;60835;50.974;10.322;2022-11-15T10:40:26;98513.72;;;18.09;100.00
72721;BME280;60835;50.974;10.322;2022-11-15T10:43:23;98516.50;;;17.88;100.00
72721;BME280;60835;50.974;10.322;2022-11-15T10:45:52;98519.75;;;17.22;100.00
72721;BME280;60835;50.974;10.322;2022-11-15T10:50:46;98505.81;;;16.77;100.00
72721;BME280;60835;50.974;10.322;2022-11-15T10:53:22;98489.72;;;17.20;100.00
72721;BME280;60835;50.974;10.322;2022-11-15T10:55:56;98476.63;;;16.97;100.00
72721;BME280;60835;50.974;10.322;2022-11-15T10:58:32;98481.75;;;17.54;100.00
72721;BME280;60835;50.974;10.322;2022-11-15T11:01:18;98485.31;;;17.33;100.00
72721;BME280;60835;50.974;10.322;2022-11-15T11:06:27;98470.16;;;18.42;100.00
72721;BME280;60835;50.974;10.322;2022-11-15T11:08:58;98483.41;;;17.27;100.00
72721;BME280;60835;50.974;10.322;2022-11-15T11:11:44;98476.25;;;17.34;100.00
72721;BME280;60835;50.974;10.322;2022-11-15T11:14:38;98470.78;;;17.83;100.00
72721;BME280;60835;50.974;10.322;2022-11-15T11:22:48;98464.75;;;17.68;100.00
72721;BME280;60835;50.974;10.322;2022-11-15T11:31:32;98460.09;;;19.22;100.00
72721;BME280;60835;50.974;10.322;2022-11-15T11:34:13;98453.53;;;18.99;100.00
72721;BME280;60835;50.974;10.322;2022-11-15T11:37:03;98449.88;;;18.00;100.00
72721;BME280;60835;50.974;10.322;2022-11-15T11:44:57;98439.72;;;18.95;100.00
72721;BME280;60835;50.974;10.322;2022-11-15T11:47:39;98430.31;;;19.63;100.00
72721;BME280;60835;50.974;10.322;2022-11-15T11:50:19;98409.75;;;19.95;100.00
72721;BME280;60835;50.974;10.322;2022-11-15T11:53:03;98431.41;;;19.49;100.00
72721;BME280;60835;50.974;10.322;2022-11-15T11:58:15;98414.78;;;20.16;100.00
72721;BME280;60835;50.974;10.322;2022-11-15T12:00:50;98426.38;;;21.04;100.00
72721;BME280;60835;50.974;10.322;2022-11-15T12:03:37;98422.38;;;18.91;100.00
72721;BME280;60835;50.974;10.322;2022-11-15T12:06:17;98406.41;;;19.35;100.00
72721;BME280;60835;50.974;10.322;2022-11-15T12:08:53;98384.66;;;18.99;100.00
72721;BME280;60835;50.974;10.322;2022-11-15T12:11:35;98429.78;;;19.28;100.00
72721;BME280;60835;50.974;10.322;2022-11-15T12:14:13;98425.38;;;20.11;100.00
72721;BME280;60835;50.974;10.322;2022-11-15T12:16:43;98434.28;;;18.36;100.00
72721;BME280;60835;50.974;10.322;2022-11-15T12:19:10;98425.06;;;17.85;100.00
72721;BME280;60835;50.974;10.322;2022-11-15T12:21:59;98425.03;;;17.65;100.00
72721;BME280;60835;50.974;10.322;2022-11-15T12:24:54;98413.66;;;18.10;100.00
72721;BME280;60835;50.974;10.322;2022-11-15T12:27:42;98425.56;;;16.92;100.00
72721;BME280;60835;50.974;10.322;2022-11-15T12:30:16;98416.69;;;16.85;100.00
72721;BME280;60835;50.974;10.322;2022-11-15T12:35:34;98409.66;;;17.39;100.00
72721;BME280;60835;50.974;10.322;2022-11-15T12:38:02;98398.03;;;17.60;100.00
72721;BME280;60835;50.974;10.322;2022-11-15T12:41:11;98402.81;;;17.71;100.00
72721;BME280;60835;50.974;10.322;2022-11-15T12:43:38;98403.94;;;18.09;100.00
72721;BME280;60835;50.974;10.322;2022-11-15T12:46:11;98399.84;;;18.20;100.00
72721;BME280;60835;50.974;10.322;2022-11-15T12:51:05;98393.84;;;16.33;100.00
72721;BME280;60835;50.974;10.322;2022-11-15T12:53:33;98379.16;;;16.44;100.00
72721;BME280;60835;50.974;10.322;2022-11-15T13:11:59;98371.66;;;16.54;100.00
72721;BME280;60835;50.974;10.322;2022-11-15T13:19:46;98371.28;;;16.36;100.00
72721;BME280;60835;50.974;10.322;2022-11-15T13:22:13;98352.00;;;15.77;100.00
72721;BME280;60835;50.974;10.322;2022-11-15T13:25:00;98357.81;;;15.80;100.00
72721;BME280;60835;50.974;10.322;2022-11-15T13:27:28;98347.75;;;15.61;100.00
72721;BME280;60835;50.974;10.322;2022-11-15T13:29:55;98347.66;;;15.55;100.00
72721;BME280;60835;50.974;10.322;2022-11-15T13:32:21;98305.34;;;15.88;100.00
72721;BME280;60835;50.974;10.322;2022-11-15T13:34:49;98339.19;;;16.08;100.00
72721;BME280;60835;50.974;10.322;2022-11-15T13:39:49;98322.75;;;15.33;100.00
72721;BME280;60835;50.974;10.322;2022-11-15T13:42:17;98316.06;;;15.22;100.00
72721;BME280;60835;50.974;10.322;2022-11-15T13:44:56;98302.53;;;15.53;100.00
72721;BME280;60835;50.974;10.322;2022-11-15T13:47:26;98309.53;;;15.25;100.00
72721;BME280;60835;50.974;10.322;2022-11-15T13:49:53;98294.78;;;14.93;100.00
72721;BME280;60835;50.974;10.322;2022-11-15T13:52:27;98286.16;;;14.91;100.00
72721;BME280;60835;50.974;10.322;2022-11-15T14:00:38;98271.47;;;14.95;100.00
72721;BME280;60835;50.974;10.322;2022-11-15T14:03:15;98247.31;;;14.68;100.00
72721;BME280;60835;50.974;10.322;2022-11-15T14:05:46;98259.81;;;14.82;100.00
72721;BME280;60835;50.974;10.322;2022-11-15T14:08:28;98242.56;;;14.63;100.00
72721;BME280;60835;50.974;10.322;2022-11-15T14:11:16;98233.75;;;14.62;100.00
72721;BME280;60835;50.974;10.322;2022-11-15T14:16:38;98213.63;;;14.60;100.00
72721;BME280;60835;50.974;10.322;2022-11-15T14:19:06;98224.00;;;14.70;100.00
72721;BME280;60835;50.974;10.322;2022-11-15T14:21:33;98216.94;;;14.62;100.00
72721;BME280;60835;50.974;10.322;2022-11-15T14:24:19;98199.03;;;14.71;100.00
72721;BME280;60835;50.974;10.322;2022-11-15T14:26:47;98206.28;;;14.77;100.00
72721;BME280;60835;50.974;10.322;2022-11-15T14:29:29;98183.06;;;14.71;100.00
72721;BME280;60835;50.974;10.322;2022-11-15T14:32:26;98160.06;;;14.84;100.00
72721;BME280;60835;50.974;10.322;2022-11-15T14:34:59;98153.03;;;14.77;100.00
72721;BME280;60835;50.974;10.322;2022-11-15T14:37:28;98111.66;;;14.81;100.00
72721;BME280;60835;50.974;10.322;2022-11-15T14:39:57;98029.81;;;14.68;100.00
72721;BME280;60835;50.974;10.322;2022-11-15T14:42:24;97973.59;;;14.56;100.00
72721;BME280;60835;50.974;10.322;2022-11-15T14:44:51;97885.44;;;14.24;100.00
72721;BME280;60835;50.974;10.322;2022-11-15T14:47:18;97821.47;;;14.32;100.00
72721;BME280;60835;50.974;10.322;2022-11-15T14:49:45;97837.25;;;14.33;100.00
72721;BME280;60835;50.974;10.322;2022-11-15T14:52:31;97797.25;;;14.27;100.00